Time;durP1;ratioP1;P1;durP2;ratioP2;P2;SDS_P1;SDS_P2;PMS_P1;PMS_P2;Temp;Humidity;BMP_temperature;BMP_pressure;BME280_temperature;BME280_humidity;BME280_pressure;Samples;Min_cycle;Max_cycle;Signal;HPM_P1;HPM_P2
2022/08/22 00:05:51;;;;;;;3.37;0.60;;;26.50;67.80;;;;;;10867403;32;20440;-70
2022/08/22 00:12:07;;;;;;;1.58;0.98;;;26.40;68.10;;;;;;10866308;32;20028;-70
2022/08/22 00:18:10;;;;;;;1.20;0.62;;;26.40;68.10;;;;;;10866176;32;20371;-70
2022/08/22 00:25:02;;;;;;;1.85;0.85;;;26.30;68.20;;;;;;10866074;32;20054;-71
2022/08/22 00:31:43;;;;;;;1.40;0.80;;;26.30;68.30;;;;;;10865555;32;20420;-71
2022/08/22 00:38:17;;;;;;;0.73;0.70;;;26.30;68.50;;;;;;10868099;32;20427;-71
2022/08/22 00:44:22;;;;;;;1.33;0.62;;;26.20;68.40;;;;;;10941748;32;20035;-71
2022/08/22 00:51:17;;;;;;;0.80;0.55;;;26.20;68.70;;;;;;10944158;32;20383;-71
2022/08/22 00:57:47;;;;;;;1.55;1.00;;;26.00;68.60;;;;;;10941390;32;20027;-71
2022/08/22 01:04:14;;;;;;;0.37;0.37;;;25.80;68.80;;;;;;10939983;32;20050;-71
2022/08/22 01:10:41;;;;;;;1.65;0.85;;;25.90;68.90;;;;;;10864801;32;20036;-71
2022/08/22 01:17:20;;;;;;;1.70;0.90;;;25.90;68.80;;;;;;10863965;32;20023;-71
2022/08/22 01:23:46;;;;;;;1.50;0.88;;;25.90;68.60;;;;;;10863841;32;20024;-71
2022/08/22 01:30:06;;;;;;;1.23;0.80;;;25.90;68.80;;;;;;10863598;32;20023;-71
2022/08/22 01:36:32;;;;;;;1.62;1.02;;;25.80;69.00;;;;;;10863429;32;20097;-71
2022/08/22 01:42:34;;;;;;;1.27;0.95;;;25.80;69.10;;;;;;10863403;32;20035;-71
2022/08/22 01:48:56;;;;;;;1.40;0.90;;;25.60;69.10;;;;;;10942048;32;20057;-71
2022/08/22 01:55:05;;;;;;;1.52;1.00;;;25.60;69.20;;;;;;10942035;32;20019;-71
2022/08/22 02:01:34;;;;;;;0.98;0.75;;;25.50;69.30;;;;;;10938476;32;20092;-71
2022/08/22 02:08:02;;;;;;;1.30;1.10;;;25.40;69.40;;;;;;10941791;32;20417;-71
2022/08/22 02:14:20;;;;;;;2.10;0.80;;;25.40;69.40;;;;;;10941608;32;20026;-71
2022/08/22 02:20:29;;;;;;;2.23;1.33;;;25.30;69.50;;;;;;10941626;32;20042;-71
2022/08/22 02:27:01;;;;;;;1.52;1.00;;;25.20;69.80;;;;;;10948571;32;20041;-71
2022/08/22 02:33:09;;;;;;;3.20;1.20;;;25.20;69.60;;;;;;10948329;32;20019;-72
2022/08/22 02:39:25;;;;;;;;;;;25.10;69.90;;;;;;10949102;32;20293;-71
2022/08/22 02:45:53;;;;;;;1.00;0.90;;;25.10;69.80;;;;;;10948676;32;20027;-71
2022/08/22 02:52:24;;;;;;;2.08;1.30;;;25.10;69.70;;;;;;10945366;32;20027;-72
2022/08/22 02:59:26;;;;;;;2.12;1.00;;;24.80;70.10;;;;;;10947804;32;20029;-71
2022/08/22 03:05:37;;;;;;;1.65;1.08;;;24.80;70.30;;;;;;10947701;32;20055;-71
2022/08/22 03:11:57;;;;;;;1.62;1.17;;;24.70;70.40;;;;;;10947614;32;20335;-72
2022/08/22 03:18:22;;;;;;;0.60;0.60;;;24.70;70.70;;;;;;10947408;32;20027;-71
2022/08/22 03:24:47;;;;;;;3.05;1.50;;;24.80;71.10;;;;;;10947298;32;20045;-71
2022/08/22 03:31:13;;;;;;;1.95;1.00;;;24.80;71.00;;;;;;10944130;32;20053;-71
2022/08/22 03:37:41;;;;;;;2.72;1.20;;;24.70;71.00;;;;;;10943538;32;20059;-71
2022/08/22 03:43:52;;;;;;;2.83;1.40;;;24.80;70.90;;;;;;10946514;32;20058;-71
2022/08/22 03:50:12;;;;;;;4.47;1.42;;;24.70;70.90;;;;;;10946392;32;20053;-71
2022/08/22 03:56:54;;;;;;;2.15;1.33;;;24.50;71.00;;;;;;10932863;32;20026;-71
2022/08/22 04:02:59;;;;;;;3.83;1.58;;;24.40;71.40;;;;;;10863723;32;20420;-71
2022/08/22 04:09:25;;;;;;;2.28;1.40;;;24.60;71.30;;;;;;10878905;32;20036;-72
2022/08/22 04:15:45;;;;;;;1.58;1.10;;;24.60;71.10;;;;;;10866306;32;20145;-72
2022/08/22 04:22:15;;;;;;;3.25;1.80;;;24.50;71.20;;;;;;10878576;32;20107;-72
2022/08/22 04:28:30;;;;;;;2.58;1.87;;;24.50;71.20;;;;;;10877940;27;20042;-71
2022/08/22 04:34:51;;;;;;;3.72;1.80;;;24.30;71.30;;;;;;10902801;32;20392;-71
2022/08/22 04:41:03;;;;;;;1.92;1.15;;;24.30;71.30;;;;;;10907805;32;20053;-71
2022/08/22 04:47:28;;;;;;;1.67;1.23;;;24.20;71.50;;;;;;10943758;32;20049;-71
2022/08/22 04:54:46;;;;;;;5.65;1.85;;;24.30;71.70;;;;;;10865943;32;20016;-71
2022/08/22 05:01:15;;;;;;;4.43;1.40;;;24.30;71.50;;;;;;10823500;32;20024;-72
2022/08/22 05:07:41;;;;;;;5.03;2.00;;;24.10;71.70;;;;;;10826863;32;20024;-72
2022/08/22 05:13:48;;;;;;;2.03;1.12;;;24.10;71.70;;;;;;10827194;32;20054;-72
2022/08/22 05:19:54;;;;;;;2.12;1.40;;;24.30;71.50;;;;;;10826889;32;20024;-72
2022/08/22 05:26:00;;;;;;;2.78;1.90;;;24.30;71.30;;;;;;10826585;32;20020;-72
2022/08/22 05:32:06;;;;;;;5.53;2.10;;;24.20;71.40;;;;;;10927518;32;20433;-72
2022/08/22 05:38:13;;;;;;;2.12;1.48;;;24.10;71.50;;;;;;10942438;32;20476;-72
2022/08/22 05:44:32;;;;;;;2.40;1.65;;;24.20;71.70;;;;;;10939314;32;20053;-72
2022/08/22 05:50:42;;;;;;;1.90;1.50;;;24.30;71.50;;;;;;10938766;32;20031;-72
2022/08/22 05:56:51;;;;;;;3.37;1.85;;;24.20;71.50;;;;;;10923524;32;20019;-72
2022/08/22 06:03:17;;;;;;;2.28;1.30;;;24.20;71.50;;;;;;10941678;32;20053;-71
2022/08/22 06:09:37;;;;;;;2.70;1.45;;;24.30;71.30;;;;;;10941835;32;20051;-71
2022/08/22 06:16:11;;;;;;;3.92;1.73;;;24.30;71.20;;;;;;10941259;32;20042;-71
2022/08/22 06:22:25;;;;;;;3.47;2.17;;;24.50;71.00;;;;;;10941502;32;20041;-71
2022/08/22 06:28:35;;;;;;;2.15;1.30;;;24.60;70.80;;;;;;10940967;32;20381;-71
2022/08/22 06:34:43;;;;;;;1.27;0.95;;;24.80;70.70;;;;;;10941297;32;20023;-71
2022/08/22 06:40:45;;;;;;;2.43;1.43;;;24.80;70.30;;;;;;10938934;32;20069;-71
2022/08/22 06:46:52;;;;;;;0.77;0.77;;;24.90;70.00;;;;;;10938453;32;20019;-71
2022/08/22 06:53:17;;;;;;;1.17;0.73;;;24.90;69.90;;;;;;10938491;32;20027;-70
2022/08/22 06:59:28;;;;;;;1.02;0.90;;;25.10;69.60;;;;;;10940416;32;20065;-70
2022/08/22 07:05:36;;;;;;;1.05;0.73;;;25.20;69.40;;;;;;10940317;32;20375;-70
2022/08/22 07:11:40;;;;;;;2.53;1.30;;;25.30;69.40;;;;;;10941184;32;20062;-70
2022/08/22 07:17:56;;;;;;;1.10;0.73;;;25.40;69.10;;;;;;10947211;32;20070;-70
2022/08/22 07:24:02;;;;;;;1.33;0.50;;;25.50;68.90;;;;;;10946611;32;20019;-70
2022/08/22 07:30:16;;;;;;;0.82;0.60;;;25.60;68.70;;;;;;10946440;32;20065;-70
2022/08/22 07:36:36;;;;;;;1.80;1.02;;;25.80;68.30;;;;;;10931776;32;20453;-70
2022/08/22 07:42:41;;;;;;;0.43;0.40;;;25.90;68.30;;;;;;10932861;32;20054;-70
2022/08/22 07:48:43;;;;;;;1.50;0.77;;;26.00;68.00;;;;;;10946185;32;20019;-70
2022/08/22 07:55:06;;;;;;;1.58;0.62;;;26.00;67.80;;;;;;10947445;32;20057;-70
2022/08/22 08:01:25;;;;;;;1.35;0.73;;;26.00;67.60;;;;;;10946236;32;20061;-70
2022/08/22 08:07:30;;;;;;;0.98;0.60;;;26.10;66.80;;;;;;10945598;32;20045;-70
2022/08/22 08:13:35;;;;;;;1.60;0.90;;;26.30;66.70;;;;;;10945565;32;20015;-70
2022/08/22 08:33:24;;;;;;;0.82;0.60;;;26.70;64.40;;;;;;10943715;32;20383;-70
2022/08/22 08:39:56;;;;;;;1.23;0.57;;;26.70;63.40;;;;;;10943543;32;20041;-70
2022/08/22 08:46:24;;;;;;;0.90;0.55;;;26.60;63.90;;;;;;10940136;32;20104;-69
2022/08/22 08:52:52;;;;;;;0.37;0.37;;;26.60;63.80;;;;;;10943941;32;20019;-69
2022/08/22 08:59:27;;;;;;;0.60;0.45;;;26.70;63.40;;;;;;10944155;32;20219;-70
2022/08/22 09:05:38;;;;;;;0.98;0.55;;;26.80;62.30;;;;;;10825719;32;20134;-70
2022/08/22 09:11:46;;;;;;;0.68;0.60;;;26.90;62.20;;;;;;10811293;33;20031;-70
2022/08/22 09:18:16;;;;;;;4.07;1.10;;;27.00;61.70;;;;;;10826510;32;20075;-70
2022/08/22 09:24:47;;;;;;;0.85;0.55;;;27.10;60.80;;;;;;10826479;32;20094;-70
2022/08/22 09:31:19;;;;;;;1.08;0.68;;;27.30;60.40;;;;;;10822801;32;20054;-70
2022/08/22 09:37:51;;;;;;;1.42;0.80;;;27.40;59.90;;;;;;10828408;32;20032;-69
2022/08/22 09:44:16;;;;;;;3.40;1.30;;;27.60;59.40;;;;;;10790347;33;20032;-69
2022/08/22 09:50:45;;;;;;;2.12;1.15;;;27.70;58.50;;;;;;10789218;33;20059;-70
2022/08/22 09:56:59;;;;;;;2.35;1.05;;;27.80;58.30;;;;;;10789274;33;20340;-70
2022/08/22 10:03:17;;;;;;;6.80;1.02;;;27.90;57.70;;;;;;10789038;33;20028;-70
2022/08/22 10:09:24;;;;;;;1.55;0.90;;;27.90;56.90;;;;;;10774874;33;20094;-70
2022/08/22 10:15:44;;;;;;;4.62;1.27;;;28.00;56.90;;;;;;10787870;33;20047;-70
2022/08/22 10:22:14;;;;;;;1.65;0.80;;;28.10;56.00;;;;;;10930371;32;20019;-71
2022/08/22 10:28:36;;;;;;;1.25;0.90;;;28.30;54.90;;;;;;10941403;32;20347;-70
2022/08/22 10:34:46;;;;;;;1.75;0.60;;;28.30;54.40;;;;;;10941488;32;20041;-70
2022/08/22 10:40:57;;;;;;;1.62;0.60;;;28.50;54.20;;;;;;10941140;32;20053;-70
2022/08/22 10:47:16;;;;;;;0.77;0.68;;;28.70;53.80;;;;;;10933784;32;20035;-70
2022/08/22 10:54:21;;;;;;;0.40;0.40;;;28.90;53.60;;;;;;10948974;32;20077;-70
2022/08/22 11:00:57;;;;;;;0.90;0.57;;;29.10;52.90;;;;;;10828606;32;20016;-71
2022/08/22 11:07:34;;;;;;;1.00;0.90;;;29.30;51.80;;;;;;10831647;32;20481;-71
2022/08/22 11:13:54;;;;;;;1.77;0.80;;;29.50;51.40;;;;;;10831235;32;20028;-70
2022/08/22 11:20:31;;;;;;;1.85;1.23;;;29.80;50.50;;;;;;10827554;32;20032;-71
2022/08/22 11:27:13;;;;;;;0.50;0.50;;;29.90;50.30;;;;;;10758572;33;20055;-71
2022/08/22 11:33:26;;;;;;;1.15;0.80;;;30.30;50.00;;;;;;10708811;33;20092;-71
2022/08/22 11:40:02;;;;;;;1.40;0.73;;;30.50;49.40;;;;;;10606710;33;20042;-71
2022/08/22 11:46:23;;;;;;;2.55;0.80;;;30.70;49.30;;;;;;10591084;33;20034;-71
2022/08/22 11:52:34;;;;;;;1.48;0.90;;;30.80;49.00;;;;;;10620449;33;20036;-71
2022/08/22 11:58:48;;;;;;;1.92;0.93;;;31.10;48.60;;;;;;10606426;33;20030;-71
2022/08/22 12:05:20;;;;;;;0.55;0.50;;;31.10;48.00;;;;;;10788618;32;20408;-71
2022/08/22 12:11:46;;;;;;;0.52;0.40;;;31.10;47.80;;;;;;10928303;32;20030;-71
2022/08/22 12:18:13;;;;;;;0.47;0.45;;;31.20;47.40;;;;;;10945564;32;20022;-70
2022/08/22 12:24:40;;;;;;;1.00;0.60;;;31.30;47.00;;;;;;10931405;32;20045;-70
2022/08/22 12:31:12;;;;;;;0.70;0.47;;;31.30;46.80;;;;;;10985266;27;20443;-71
2022/08/22 12:37:18;;;;;;;2.17;1.00;;;31.30;46.70;;;;;;10889314;32;20404;-70
2022/08/22 12:43:47;;;;;;;3.25;0.90;;;31.30;46.60;;;;;;10902861;32;20065;-71
2022/08/22 12:49:52;;;;;;;1.42;0.82;;;31.30;46.10;;;;;;10898758;32;20027;-71
2022/08/22 12:56:05;;;;;;;2.55;0.82;;;31.30;45.60;;;;;;10899107;32;20031;-71
2022/08/22 13:02:24;;;;;;;1.77;0.80;;;31.30;45.30;;;;;;10902468;32;20408;-71
2022/08/22 13:08:35;;;;;;;1.12;0.65;;;31.20;45.20;;;;;;10901954;32;20061;-70
2022/08/22 13:14:37;;;;;;;0.82;0.50;;;31.10;44.80;;;;;;11000285;32;20045;-70
2022/08/22 13:20:42;;;;;;;1.30;0.60;;;31.10;45.10;;;;;;11016841;32;20026;-71
2022/08/22 13:26:53;;;;;;;1.90;0.93;;;31.20;44.80;;;;;;11016175;32;20026;-70
2022/08/22 13:33:08;;;;;;;1.92;0.80;;;31.30;44.10;;;;;;11016439;32;20382;-70
2022/08/22 13:39:14;;;;;;;0.20;0.20;;;31.20;43.80;;;;;;11003046;32;20045;-71
2022/08/22 13:45:23;;;;;;;1.00;0.85;;;31.00;43.40;;;;;;11018348;32;20026;-71
2022/08/22 13:51:27;;;;;;;0.55;0.35;;;31.10;42.90;;;;;;11014696;32;20420;-71
2022/08/22 13:57:35;;;;;;;1.62;1.05;;;31.20;43.30;;;;;;11014448;32;20026;-71
2022/08/22 14:04:10;;;;;;;1.12;0.70;;;31.30;43.40;;;;;;11004119;32;20014;-70
2022/08/22 14:10:22;;;;;;;2.92;0.77;;;31.20;43.20;;;;;;11016935;32;20042;-70
2022/08/22 14:16:49;;;;;;;0.73;0.47;;;31.20;42.80;;;;;;11017013;32;20044;-70
2022/08/22 14:23:12;;;;;;;2.27;0.90;;;31.20;42.40;;;;;;11020278;32;20050;-70
2022/08/22 14:29:18;;;;;;;0.82;0.47;;;31.30;43.20;;;;;;10999391;32;20022;-70
2022/08/22 14:35:29;;;;;;;1.27;0.80;;;31.50;43.60;;;;;;10973628;32;20045;-70
2022/08/22 14:41:41;;;;;;;0.95;0.60;;;31.60;43.80;;;;;;10986700;32;20095;-71
2022/08/22 14:54:31;;;;;;;1.97;0.80;;;31.50;45.50;;;;;;10793454;32;20059;-71
2022/08/22 15:00:56;;;;;;;1.60;0.88;;;31.60;45.60;;;;;;10795111;33;20024;-71
2022/08/22 15:07:01;;;;;;;2.03;1.15;;;31.60;45.70;;;;;;10794977;33;20144;-71
2022/08/22 15:13:06;;;;;;;1.73;0.95;;;31.70;45.80;;;;;;10794491;33;20036;-71
2022/08/22 15:19:34;;;;;;;0.93;0.70;;;31.80;46.10;;;;;;10791499;33;20072;-71
2022/08/22 15:25:41;;;;;;;0.80;0.52;;;31.90;45.80;;;;;;10783161;33;20028;-71
2022/08/22 15:31:44;;;;;;;1.90;1.10;;;32.00;45.90;;;;;;10959261;32;20022;-71
2022/08/22 15:38:31;;;;;;;1.90;0.80;;;31.90;46.40;;;;;;10983175;32;20018;-71
2022/08/22 15:44:39;;;;;;;1.73;0.65;;;31.90;46.10;;;;;;10794528;32;20020;-71
2022/08/22 15:51:03;;;;;;;1.30;0.82;;;31.90;46.60;;;;;;10790584;32;20028;-71
2022/08/22 15:57:26;;;;;;;1.48;0.77;;;32.00;47.10;;;;;;10793177;33;20024;-70
2022/08/22 16:03:31;;;;;;;0.93;0.57;;;32.00;46.60;;;;;;10792967;33;20136;-69
2022/08/22 16:09:39;;;;;;;0.47;0.30;;;32.00;46.70;;;;;;10793831;33;20032;-69
2022/08/22 16:15:47;;;;;;;1.55;0.90;;;31.90;46.90;;;;;;10793649;33;20034;-69
2022/08/22 16:21:53;;;;;;;1.55;0.45;;;31.90;46.90;;;;;;10954832;32;20076;-69
2022/08/22 16:28:02;;;;;;;0.70;0.50;;;31.90;46.50;;;;;;10982615;32;20049;-69
2022/08/22 16:34:17;;;;;;;0.65;0.50;;;31.90;46.40;;;;;;10968973;32;20057;-69
2022/08/22 16:40:24;;;;;;;2.08;0.60;;;31.90;46.10;;;;;;10978100;32;20492;-69
2022/08/22 16:46:31;;;;;;;4.20;0.88;;;31.90;45.90;;;;;;10981852;32;20027;-70
2022/08/22 16:52:36;;;;;;;0.60;0.40;;;31.90;45.70;;;;;;10986132;32;20023;-70
2022/08/22 16:58:51;;;;;;;2.47;0.75;;;31.80;45.80;;;;;;11019626;32;20019;-70
2022/08/22 17:05:17;;;;;;;2.15;1.00;;;32.10;46.00;;;;;;11019418;32;20026;-69
2022/08/22 17:11:55;;;;;;;0.60;0.50;;;32.50;46.10;;;;;;10940011;32;20057;-69
2022/08/22 17:18:44;;;;;;;1.67;0.70;;;32.10;47.20;;;;;;10828044;32;20305;-69
2022/08/22 17:25:28;;;;;;;2.30;0.85;;;31.70;48.10;;;;;;10827373;32;20055;-70
2022/08/22 17:32:01;;;;;;;2.50;1.17;;;31.50;48.50;;;;;;10831044;32;20059;-69
2022/08/22 17:38:37;;;;;;;1.95;0.68;;;31.40;48.40;;;;;;10938593;32;20027;-70
2022/08/22 17:45:06;;;;;;;3.03;0.75;;;31.10;49.00;;;;;;10952547;32;20374;-70
2022/08/22 17:51:26;;;;;;;1.33;0.93;;;30.80;50.20;;;;;;11017938;32;20049;-70
2022/08/22 17:57:29;;;;;;;4.45;1.05;;;30.40;51.10;;;;;;11017666;32;20050;-70
2022/08/22 18:03:37;;;;;;;1.23;0.70;;;30.30;51.40;;;;;;11017351;32;20049;-69
2022/08/22 18:09:50;;;;;;;0.52;0.50;;;30.20;51.60;;;;;;11017157;32;20027;-69
2022/08/22 18:15:58;;;;;;;5.85;0.60;;;30.00;52.40;;;;;;11017121;32;20019;-69
2022/08/22 18:22:28;;;;;;;0.57;0.28;;;29.80;52.80;;;;;;11017283;32;20045;-69
2022/08/22 18:28:47;;;;;;;1.58;0.73;;;29.80;53.00;;;;;;11017700;32;20449;-69
2022/08/22 18:35:20;;;;;;;2.35;0.95;;;29.60;53.90;;;;;;11017142;32;20015;-69
2022/08/22 18:41:41;;;;;;;2.10;0.65;;;29.40;54.40;;;;;;11016741;32;20023;-69
2022/08/22 18:47:54;;;;;;;0.90;0.52;;;29.40;54.80;;;;;;11015671;32;20022;-69
2022/08/22 18:54:05;;;;;;;1.95;0.73;;;29.30;54.90;;;;;;11015467;32;20029;-69
2022/08/22 19:00:17;;;;;;;1.00;0.60;;;29.20;55.60;;;;;;11016387;32;20037;-69
2022/08/22 19:06:41;;;;;;;1.02;0.40;;;29.10;55.60;;;;;;11020668;32;20427;-69
2022/08/22 19:13:02;;;;;;;0.65;0.55;;;29.10;55.80;;;;;;10985099;32;20022;-69
2022/08/22 19:19:22;;;;;;;0.93;0.45;;;29.10;56.00;;;;;;10984430;32;20344;-69
2022/08/22 19:25:26;;;;;;;3.30;0.75;;;29.00;56.30;;;;;;10985141;32;20015;-69
2022/08/22 19:31:41;;;;;;;1.00;0.45;;;28.90;56.40;;;;;;10984359;32;20308;-69
2022/08/22 19:37:51;;;;;;;1.05;0.75;;;28.80;56.60;;;;;;10984467;32;20007;-69
2022/08/22 19:43:53;;;;;;;0.73;0.60;;;28.80;57.10;;;;;;10984430;32;20030;-69
2022/08/22 19:50:01;;;;;;;1.15;0.55;;;28.80;57.20;;;;;;10984045;32;20410;-69
2022/08/22 19:56:03;;;;;;;1.27;0.62;;;28.70;57.50;;;;;;10983664;32;20015;-69
2022/08/22 20:02:17;;;;;;;1.42;0.70;;;28.60;58.10;;;;;;10983116;32;20029;-69
2022/08/22 20:08:34;;;;;;;0.50;0.37;;;28.60;58.10;;;;;;10982711;32;20053;-69
2022/08/22 20:14:40;;;;;;;0.63;0.43;;;28.50;58.10;;;;;;10982292;32;20007;-69
2022/08/22 20:20:58;;;;;;;0.60;0.57;;;28.40;58.20;;;;;;10986242;32;20296;-69
2022/08/22 20:27:03;;;;;;;;;;;28.40;58.30;;;;;;10587716;27;13983251;-69
2022/08/22 20:33:22;;;;;;;1.55;0.75;;;28.40;58.60;;;;;;10891218;32;19930;-69
2022/08/22 20:39:53;;;;;;;1.58;0.80;;;28.30;58.80;;;;;;10903002;32;20341;-69
2022/08/22 20:46:25;;;;;;;0.57;0.43;;;28.30;58.80;;;;;;10903276;32;20418;-69
2022/08/22 20:52:43;;;;;;;1.42;0.82;;;28.30;59.00;;;;;;10906190;32;20030;-68
2022/08/22 20:58:47;;;;;;;1.02;0.90;;;28.30;59.10;;;;;;10982020;32;20019;-68
2022/08/22 21:05:46;;;;;;;1.37;0.85;;;28.20;59.40;;;;;;10968303;32;20038;-68
2022/08/22 21:11:49;;;;;;;1.60;0.80;;;28.10;59.50;;;;;;10981300;32;20010;-69
2022/08/22 21:17:51;;;;;;;1.30;1.15;;;28.10;59.70;;;;;;10980949;32;20046;-69
2022/08/22 21:24:00;;;;;;;2.58;0.70;;;27.90;60.50;;;;;;10980636;32;20387;-68
2022/08/22 21:30:07;;;;;;;1.27;0.62;;;27.80;61.60;;;;;;10980385;32;20031;-68
2022/08/22 21:36:14;;;;;;;0.60;0.30;;;27.60;62.30;;;;;;10980453;32;20069;-68
2022/08/22 21:42:24;;;;;;;0.93;0.53;;;27.60;62.50;;;;;;10980216;32;20347;-67
2022/08/22 21:48:32;;;;;;;1.85;1.20;;;27.50;62.60;;;;;;10980146;32;20018;-67
2022/08/22 21:54:42;;;;;;;;;;;27.30;63.30;;;;;;10977942;32;20346;-68
2022/08/22 22:01:06;;;;;;;2.10;1.08;;;27.30;63.90;;;;;;10979730;32;19940;-68
2022/08/22 22:07:08;;;;;;;2.35;0.75;;;27.30;63.70;;;;;;10979772;32;20010;-68
2022/08/22 22:13:10;;;;;;;1.27;0.82;;;27.30;63.50;;;;;;10980467;32;20031;-68
2022/08/22 22:19:13;;;;;;;2.83;1.20;;;27.20;64.10;;;;;;10979328;32;20027;-68
2022/08/22 22:25:18;;;;;;;1.75;0.90;;;27.20;64.00;;;;;;10961741;32;20007;-68
2022/08/22 22:31:20;;;;;;;1.23;0.70;;;27.10;64.00;;;;;;10979193;32;20343;-68
2022/08/22 22:37:22;;;;;;;1.92;0.85;;;27.10;64.00;;;;;;10965757;32;20037;-68
2022/08/22 22:43:24;;;;;;;1.23;0.88;;;27.00;64.10;;;;;;10986001;32;20307;-68
2022/08/22 22:49:27;;;;;;;1.12;0.98;;;27.10;64.00;;;;;;10986374;32;20398;-68
2022/08/22 22:55:29;;;;;;;1.52;1.00;;;27.00;64.10;;;;;;10986325;32;20015;-68
2022/08/22 23:01:32;;;;;;;1.67;1.02;;;26.90;64.30;;;;;;10972556;32;20073;-68
2022/08/22 23:07:35;;;;;;;1.62;1.35;;;26.90;64.40;;;;;;10985801;32;20022;-68
2022/08/22 23:13:37;;;;;;;2.08;1.30;;;26.90;64.40;;;;;;10985749;32;20022;-68
2022/08/22 23:19:40;;;;;;;1.05;0.80;;;26.80;64.50;;;;;;10985297;32;20053;-68
2022/08/22 23:25:42;;;;;;;1.33;1.10;;;26.80;64.60;;;;;;10985240;32;20445;-68
2022/08/22 23:31:56;;;;;;;1.42;1.17;;;26.70;64.70;;;;;;10971347;32;20049;-68
2022/08/22 23:37:59;;;;;;;2.08;1.33;;;26.60;64.90;;;;;;10984663;32;20294;-70
2022/08/22 23:44:02;;;;;;;0.88;0.82;;;26.60;65.00;;;;;;10984701;32;20042;-70
2022/08/22 23:50:05;;;;;;;1.10;1.02;;;26.60;65.10;;;;;;10984240;32;20350;-68
2022/08/22 23:56:27;;;;;;;1.73;0.88;;;26.60;65.00;;;;;;10984163;32;20387;-68
